Time;durP1;ratioP1;P1;durP2;ratioP2;P2;SDS_P1;SDS_P2;PMS_P1;PMS_P2;Temp;Humidity;BMP_temperature;BMP_pressure;BME280_temperature;BME280_humidity;BME280_pressure;Samples;Min_cycle;Max_cycle;Signal;HPM_P1;HPM_P2
2024/04/21 00:01:40;;;;;;;16.20;8.40;;;;;;;11.56;100.00;100009.44;5273595;27;20026;-68
2024/04/21 00:04:06;;;;;;;15.68;7.70;;;;;;;11.58;100.00;99996.81;5178120;27;20020;-68
2024/04/21 00:06:31;;;;;;;17.23;7.85;;;;;;;11.64;100.00;99999.72;5148727;27;20022;-69
2024/04/21 00:08:57;;;;;;;15.25;7.15;;;;;;;11.68;100.00;100006.41;5153380;27;20039;-69
2024/04/21 00:11:23;;;;;;;19.00;8.38;;;;;;;11.67;100.00;99993.22;5180502;27;20371;-70
2024/04/21 00:13:49;;;;;;;14.35;7.90;;;;;;;11.71;100.00;99994.59;5180294;27;20494;-70
2024/04/21 00:16:15;;;;;;;24.25;9.15;;;;;;;11.68;100.00;99990.44;5180258;27;20034;-69
2024/04/21 00:18:45;;;;;;;23.92;10.77;;;;;;;11.72;100.00;99989.13;5181020;27;20006;-69
2024/04/21 00:21:11;;;;;;;24.27;11.25;;;;;;;11.64;100.00;99988.22;5180795;27;20075;-69
2024/04/21 00:23:38;;;;;;;23.10;10.30;;;;;;;11.63;100.00;99998.06;5147519;27;20018;-69
2024/04/21 00:26:07;;;;;;;22.58;10.15;;;;;;;11.72;100.00;100001.59;5121026;27;20032;-69
2024/04/21 00:28:33;;;;;;;22.33;9.88;;;;;;;11.68;100.00;100008.22;5179561;27;20000;-71
2024/04/21 00:31:00;;;;;;;27.40;11.18;;;;;;;11.50;100.00;99996.78;5113798;27;20001;-72
2024/04/21 00:33:26;;;;;;;24.33;10.40;;;;;;;11.52;100.00;100000.94;5086580;27;20095;-69
2024/04/21 00:35:52;;;;;;;22.95;8.70;;;;;;;11.49;100.00;100016.34;5090044;27;20012;-69
2024/04/21 00:38:18;;;;;;;20.73;8.05;;;;;;;11.39;100.00;100002.31;5064005;27;20009;-69
2024/04/21 00:40:44;;;;;;;14.85;6.88;;;;;;;11.40;100.00;100017.28;5065480;27;20441;-69
2024/04/21 00:43:11;;;;;;;14.52;6.18;;;;;;;11.40;100.00;100015.47;5092293;27;20001;-69
2024/04/21 00:45:41;;;;;;;13.05;6.03;;;;;;;11.41;100.00;100018.94;5092603;27;20005;-69
2024/04/21 00:48:11;;;;;;;12.90;5.93;;;;;;;11.29;100.00;100010.38;5091668;27;20020;-69
2024/04/21 00:50:39;;;;;;;12.18;5.97;;;;;;;11.15;100.00;100012.75;5118063;27;20033;-68
2024/04/21 00:53:07;;;;;;;12.35;5.63;;;;;;;11.11;100.00;100014.03;5133976;27;20001;-70
2024/04/21 00:55:34;;;;;;;12.20;5.45;;;;;;;11.08;100.00;100015.19;5126771;27;20149;-69
2024/04/21 00:58:02;;;;;;;13.20;5.18;;;;;;;11.08;100.00;100017.00;5191715;27;20660;-70
2024/04/21 01:00:31;;;;;;;10.30;5.35;;;;;;;10.82;100.00;100027.56;5160092;27;19999;-70
2024/04/21 01:02:57;;;;;;;10.20;5.07;;;;;;;10.76;100.00;100019.34;5187586;27;20014;-70
2024/04/21 01:05:24;;;;;;;9.00;4.68;;;;;;;10.84;100.00;100012.28;5159341;27;20502;-68
2024/04/21 01:07:53;;;;;;;9.10;4.63;;;;;;;10.84;100.00;100022.91;5208484;26;20034;-67
2024/04/21 01:10:19;;;;;;;8.52;4.35;;;;;;;10.84;100.00;100030.88;5258838;26;19997;-67
2024/04/21 01:12:46;;;;;;;12.70;4.65;;;;;;;10.79;100.00;100033.16;5258592;26;20000;-68
2024/04/21 01:15:15;;;;;;;10.70;4.78;;;;;;;10.88;100.00;100045.56;5258932;26;20004;-68
2024/04/21 01:17:43;;;;;;;10.95;5.05;;;;;;;10.82;100.00;100040.00;5219013;27;20005;-69
2024/04/21 01:20:13;;;;;;;7.40;3.75;;;;;;;10.90;100.00;100026.78;5219826;27;20002;-68
2024/04/21 01:22:46;;;;;;;6.43;3.85;;;;;;;10.99;100.00;100033.88;5219679;27;20010;-68
2024/04/21 01:25:11;;;;;;;4.70;3.38;;;;;;;11.02;100.00;100029.09;5191700;27;20010;-73
2024/04/21 01:27:37;;;;;;;4.82;3.38;;;;;;;11.12;100.00;100042.28;5256302;26;20323;-70
2024/04/21 01:30:04;;;;;;;5.18;3.22;;;;;;;11.15;100.00;100034.00;5258089;26;20067;-70
2024/04/21 01:32:30;;;;;;;6.07;3.38;;;;;;;11.08;100.00;100038.28;5230213;26;20085;-70
2024/04/21 01:34:56;;;;;;;3.50;2.80;;;;;;;11.28;100.00;100037.97;5257891;26;20004;-70
2024/04/21 01:37:22;;;;;;;4.25;3.03;;;;;;;11.34;100.00;100034.69;5257669;26;20007;-68
2024/04/21 01:39:47;;;;;;;3.60;2.88;;;;;;;11.40;100.00;100038.56;5286146;26;20001;-68
2024/04/21 01:42:14;;;;;;;5.30;2.80;;;;;;;11.46;100.00;100032.63;5257882;26;20001;-69
2024/04/21 01:44:40;;;;;;;3.35;2.30;;;;;;;11.49;100.00;100040.28;5230558;26;19997;-68
2024/04/21 01:47:07;;;;;;;5.47;2.65;;;;;;;11.55;100.00;100031.69;5256602;26;20107;-68
2024/04/21 01:49:34;;;;;;;6.82;2.70;;;;;;;11.61;100.00;100033.72;5229913;26;20474;-69
2024/04/21 01:52:00;;;;;;;4.38;3.05;;;;;;;11.51;100.00;100043.66;5257521;26;20065;-69
2024/04/21 01:54:26;;;;;;;6.60;3.08;;;;;;;11.54;100.00;100036.19;5229710;26;19997;-69
2024/04/21 01:56:52;;;;;;;4.35;2.90;;;;;;;11.52;100.00;100046.16;5257676;26;20008;-69
2024/04/21 01:59:18;;;;;;;4.90;2.60;;;;;;;11.55;100.00;100048.50;5257183;26;20009;-70
2024/04/21 02:01:44;;;;;;;5.35;3.00;;;;;;;11.42;100.00;100044.56;5313155;26;20032;-70
2024/04/21 02:04:10;;;;;;;8.05;3.00;;;;;;;11.34;100.00;100042.69;5293531;26;20000;-70
2024/04/21 02:06:36;;;;;;;14.48;3.63;;;;;;;11.32;100.00;100044.66;5293105;26;20024;-67
2024/04/21 02:09:02;;;;;;;5.15;2.50;;;;;;;11.33;100.00;100034.84;5321194;26;20781;-70
2024/04/21 02:11:28;;;;;;;5.95;3.00;;;;;;;11.18;100.00;100023.91;5292689;26;20074;-68
2024/04/21 02:13:55;;;;;;;4.65;2.45;;;;;;;11.22;100.00;100027.09;5321105;26;19996;-69
2024/04/21 02:16:21;;;;;;;4.47;2.47;;;;;;;11.32;100.00;100030.50;5349855;26;20078;-68
2024/04/21 02:18:47;;;;;;;4.28;2.22;;;;;;;11.38;100.00;100032.53;5320951;26;20007;-68
2024/04/21 02:21:13;;;;;;;2.97;2.15;;;;;;;11.42;100.00;100028.63;5322349;26;20000;-72
2024/04/21 02:23:38;;;;;;;4.15;2.20;;;;;;;11.44;100.00;100029.31;5322406;26;20001;-70
2024/04/21 02:26:04;;;;;;;2.50;2.22;;;;;;;11.41;100.00;100029.59;5292529;26;20000;-70
2024/04/21 02:28:30;;;;;;;5.97;2.83;;;;;;;11.35;100.00;100023.06;5321436;26;20347;-68
2024/04/21 02:30:56;;;;;;;4.72;3.10;;;;;;;11.40;100.00;100033.25;5321073;26;20071;-69
2024/04/21 02:33:23;;;;;;;3.53;2.70;;;;;;;11.43;100.00;100016.97;5320911;26;20000;-69
2024/04/21 02:35:50;;;;;;;3.92;2.63;;;;;;;11.42;100.00;100010.81;5320887;26;20015;-67
2024/04/21 02:38:16;;;;;;;3.47;2.40;;;;;;;11.47;100.00;100021.03;5349364;26;20072;-68
2024/04/21 02:40:43;;;;;;;4.22;2.60;;;;;;;11.47;100.00;100026.34;5279486;27;20008;-68
2024/04/21 02:43:09;;;;;;;3.75;2.33;;;;;;;11.33;100.00;100022.38;5279630;27;19997;-67
2024/04/21 02:45:38;;;;;;;3.97;2.50;;;;;;;11.39;100.00;100020.94;5251909;27;20457;-67
2024/04/21 02:48:09;;;;;;;2.67;1.80;;;;;;;11.46;100.00;100011.34;5212162;27;20030;-70
2024/04/21 02:50:36;;;;;;;2.90;2.03;;;;;;;11.58;100.00;100012.75;5212906;27;20071;-70
2024/04/21 02:53:03;;;;;;;2.50;1.85;;;;;;;11.61;100.00;100020.44;5158268;27;20006;-69
2024/04/21 02:55:29;;;;;;;2.47;1.77;;;;;;;11.67;100.00;100004.72;5142090;27;20492;-68
2024/04/21 02:57:56;;;;;;;4.53;1.85;;;;;;;11.71;100.00;100021.22;5141124;27;20001;-69
2024/04/21 03:00:22;;;;;;;1.58;1.40;;;;;;;11.75;100.00;100026.06;5114842;27;20077;-68
2024/04/21 03:02:48;;;;;;;2.67;2.03;;;;;;;11.81;100.00;100027.25;5141321;27;20009;-69
2024/04/21 03:05:15;;;;;;;4.05;2.03;;;;;;;11.75;100.00;100033.22;5087992;27;20001;-72
2024/04/21 03:07:40;;;;;;;2.83;2.15;;;;;;;11.79;100.00;100029.25;5062236;27;20016;-66
2024/04/21 03:10:07;;;;;;;3.13;1.90;;;;;;;11.85;100.00;100033.97;5114325;27;20054;-66
2024/04/21 03:12:32;;;;;;;4.30;2.13;;;;;;;11.57;100.00;100032.38;5141254;27;20002;-65
2024/04/21 03:14:58;;;;;;;7.07;2.65;;;;;;;11.51;100.00;100025.88;5141565;27;20005;-66
2024/04/21 03:17:24;;;;;;;13.55;2.60;;;;;;;11.60;100.00;100024.09;5114376;27;20082;-65
2024/04/21 03:19:50;;;;;;;2.58;1.75;;;;;;;11.63;100.00;100031.78;5166820;27;20533;-65
2024/04/21 03:22:17;;;;;;;2.25;1.80;;;;;;;11.69;100.00;100024.03;5179912;27;20486;-66
2024/04/21 03:24:43;;;;;;;3.22;1.80;;;;;;;11.63;100.00;100045.09;5181536;27;20000;-67
2024/04/21 03:27:09;;;;;;;6.28;2.15;;;;;;;11.58;100.00;100042.88;5210780;27;20010;-66
2024/04/21 03:29:37;;;;;;;2.42;1.98;;;;;;;11.50;100.00;100037.47;5245049;27;20509;-69
2024/04/21 03:32:04;;;;;;;2.15;1.80;;;;;;;11.68;100.00;100037.50;5217322;27;20018;-67
2024/04/21 03:34:29;;;;;;;1.95;1.63;;;;;;;11.78;100.00;100043.53;5217248;27;20007;-67
2024/04/21 03:36:56;;;;;;;3.30;1.60;;;;;;;11.81;100.00;100028.09;5244735;27;20070;-68
2024/04/21 03:39:22;;;;;;;2.40;1.80;;;;;;;11.88;100.00;100036.31;5246586;27;20002;-69
2024/04/21 03:41:48;;;;;;;2.38;2.10;;;;;;;11.85;100.00;100028.63;5197874;26;20096;-67
2024/04/21 03:44:13;;;;;;;2.70;1.77;;;;;;;11.92;100.00;100034.19;5286178;26;20001;-67
2024/04/21 03:46:40;;;;;;;3.35;1.90;;;;;;;11.94;100.00;100022.38;5314028;26;20071;-69
2024/04/21 03:49:06;;;;;;;3.63;1.80;;;;;;;12.03;100.00;100026.75;5285600;26;20005;-68
2024/04/21 03:51:32;;;;;;;4.55;2.08;;;;;;;11.98;100.00;100029.03;5371678;26;19996;-67
2024/04/21 03:53:58;;;;;;;5.68;2.17;;;;;;;12.08;100.00;100027.13;5311160;26;20038;-67
2024/04/21 03:56:24;;;;;;;2.97;1.92;;;;;;;12.16;100.00;100021.84;5319806;26;20011;-67
2024/04/21 03:58:50;;;;;;;2.95;1.73;;;;;;;12.20;100.00;100014.34;5348470;26;20000;-66
2024/04/21 04:01:15;;;;;;;3.70;1.92;;;;;;;12.25;100.00;100009.38;5320003;26;20419;-66
2024/04/21 04:03:41;;;;;;;5.57;2.20;;;;;;;12.30;100.00;100005.22;5319673;26;20000;-67
2024/04/21 04:06:10;;;;;;;10.45;3.13;;;;;;;12.30;100.00;100004.41;5319740;26;20024;-68
2024/04/21 04:08:36;;;;;;;12.20;5.90;;;;;;;12.18;100.00;99998.53;5319987;26;20071;-68
2024/04/21 04:11:02;;;;;;;13.65;6.13;;;;;;;12.22;100.00;99991.91;5351975;26;20308;-67
2024/04/21 04:13:28;;;;;;;17.33;8.00;;;;;;;12.26;100.00;100003.91;5322940;26;20000;-67
2024/04/21 04:15:54;;;;;;;19.58;9.15;;;;;;;12.27;100.00;99994.91;5322642;26;20014;-67
2024/04/21 04:18:20;;;;;;;23.42;8.80;;;;;;;12.33;100.00;99999.59;5351070;26;20439;-69
2024/04/21 04:20:46;;;;;;;21.55;9.52;;;;;;;12.40;100.00;99997.97;5293947;26;20016;-69
2024/04/21 04:23:12;;;;;;;22.75;9.38;;;;;;;12.41;100.00;99983.63;5322944;26;20000;-68
2024/04/21 04:25:38;;;;;;;25.55;10.23;;;;;;;12.49;100.00;99986.34;5351512;26;20001;-66
2024/04/21 04:28:04;;;;;;;28.98;11.02;;;;;;;12.45;100.00;99986.81;5380693;26;20000;-67
2024/04/21 04:30:30;;;;;;;36.28;14.50;;;;;;;12.44;100.00;99988.66;5351472;26;20347;-69
2024/04/21 04:32:56;;;;;;;34.42;13.20;;;;;;;12.36;100.00;99990.47;5322100;26;20000;-68
2024/04/21 04:35:22;;;;;;;43.58;14.80;;;;;;;12.37;100.00;100002.78;5294305;26;20107;-67
2024/04/21 04:37:47;;;;;;;36.53;12.48;;;;;;;12.44;100.00;99998.47;5323151;26;20040;-70
2024/04/21 04:40:13;;;;;;;30.67;11.65;;;;;;;12.56;100.00;100002.53;5322969;26;20001;-68
2024/04/21 04:42:39;;;;;;;24.02;9.88;;;;;;;12.68;100.00;99994.06;5351221;26;20407;-66
2024/04/21 04:45:05;;;;;;;22.33;8.82;;;;;;;12.75;100.00;99975.56;5324380;26;20001;-67
2024/04/21 04:47:32;;;;;;;22.05;9.48;;;;;;;12.80;100.00;99990.09;5352090;26;20430;-67
2024/04/21 04:49:58;;;;;;;20.67;8.40;;;;;;;12.70;100.00;99999.22;5350967;26;20011;-66
2024/04/21 04:52:24;;;;;;;21.02;6.32;;;;;;;12.71;100.00;100000.91;5322043;26;20016;-66
2024/04/21 04:54:50;;;;;;;15.93;6.35;;;;;;;12.71;100.00;99987.56;5322511;26;20000;-68
2024/04/21 04:57:15;;;;;;;13.00;5.45;;;;;;;12.66;100.00;99995.22;5322559;26;20011;-68
2024/04/21 04:59:41;;;;;;;14.18;5.40;;;;;;;12.52;100.00;99982.50;5351214;26;20001;-70
2024/04/21 05:02:07;;;;;;;8.88;3.67;;;;;;;12.39;100.00;99964.34;5351163;26;20015;-67
2024/04/21 05:04:33;;;;;;;8.93;3.80;;;;;;;12.45;100.00;99942.38;5350751;26;20074;-71
2024/04/21 05:06:58;;;;;;;9.32;3.55;;;;;;;12.52;100.00;99934.53;5380866;26;20001;-71
2024/04/21 05:09:24;;;;;;;9.68;4.25;;;;;;;12.57;100.00;99921.56;5383727;26;20011;-70
2024/04/21 05:11:50;;;;;;;25.60;10.05;;;;;;;12.58;100.00;99932.06;5382331;26;20008;-67
2024/04/21 05:14:16;;;;;;;27.08;10.45;;;;;;;12.67;100.00;99944.41;5351255;26;20008;-66
2024/04/21 05:16:45;;;;;;;35.17;13.18;;;;;;;12.69;100.00;99928.25;5409396;26;20016;-70
2024/04/21 05:19:11;;;;;;;42.67;14.25;;;;;;;12.89;100.00;99942.94;5323110;26;20000;-71
2024/04/21 05:21:38;;;;;;;39.95;13.68;;;;;;;13.27;100.00;99952.97;5350504;26;20041;-72
2024/04/21 05:24:04;;;;;;;42.85;13.57;;;;;;;13.68;95.58;99941.28;5293531;26;20004;-71
2024/04/21 05:26:30;;;;;;;40.22;14.13;;;;;;;13.95;90.31;99945.34;5323875;26;20008;-72
2024/04/21 05:28:55;;;;;;;34.97;13.23;;;;;;;14.15;87.97;99949.28;5383087;26;20001;-73
2024/04/21 05:31:21;;;;;;;35.00;12.82;;;;;;;14.33;84.27;99955.28;5327123;26;20070;-73
2024/04/21 05:33:47;;;;;;;27.48;11.13;;;;;;;14.50;81.98;99949.66;5324812;26;20082;-72
2024/04/21 05:36:14;;;;;;;28.13;10.25;;;;;;;14.64;81.71;99948.91;5322389;26;20015;-74
2024/04/21 05:38:40;;;;;;;22.98;8.80;;;;;;;14.69;79.98;99940.34;5351752;26;20506;-73
2024/04/21 05:41:05;;;;;;;18.58;6.95;;;;;;;14.76;79.25;99938.66;5379678;26;20415;-73
2024/04/21 05:43:31;;;;;;;13.85;6.40;;;;;;;14.77;78.35;99932.28;5350626;26;20007;-73
2024/04/21 05:46:01;;;;;;;19.83;6.85;;;;;;;14.79;78.63;99928.41;5293313;26;20319;-74
2024/04/21 05:48:27;;;;;;;19.90;7.80;;;;;;;14.73;76.79;99926.44;5322234;26;20015;-73
2024/04/21 05:50:56;;;;;;;22.70;8.70;;;;;;;14.72;77.58;99922.13;5322283;26;20004;-74
2024/04/21 05:53:23;;;;;;;25.17;8.75;;;;;;;14.90;76.81;99922.66;5312067;26;20012;-73
2024/04/21 05:55:49;;;;;;;29.67;10.93;;;;;;;14.90;74.55;99900.41;5287307;26;20036;-71
2024/04/21 05:58:15;;;;;;;36.20;13.55;;;;;;;15.08;74.09;99898.28;5231215;26;20487;-72
2024/04/21 06:00:43;;;;;;;33.38;12.85;;;;;;;15.20;72.51;99883.47;5230649;26;20008;-72
2024/04/21 06:03:08;;;;;;;31.77;12.98;;;;;;;15.50;70.06;99879.81;5230915;26;19997;-72
2024/04/21 06:05:34;;;;;;;29.58;11.48;;;;;;;15.81;67.73;99880.50;5230764;26;19993;-73
2024/04/21 06:08:00;;;;;;;29.90;11.10;;;;;;;15.98;67.76;99895.34;5230753;26;20041;-72
2024/04/21 06:10:26;;;;;;;24.55;11.40;;;;;;;16.09;66.48;99889.53;5321698;26;20455;-77
2024/04/21 06:12:55;;;;;;;24.25;10.95;;;;;;;16.11;64.50;99892.00;5234737;26;19997;-75
2024/04/21 06:15:21;;;;;;;22.52;9.68;;;;;;;15.77;65.53;99884.56;5212174;26;20015;-75
2024/04/21 06:17:48;;;;;;;18.85;7.45;;;;;;;15.75;66.03;99875.88;5234963;26;20371;-78
2024/04/21 06:20:14;;;;;;;21.15;8.38;;;;;;;15.53;66.13;99879.47;5319269;26;20001;-76
2024/04/21 06:22:40;;;;;;;22.05;8.88;;;;;;;15.53;65.67;99870.63;5281937;26;20435;-81
2024/04/21 06:25:08;;;;;;;19.25;8.07;;;;;;;15.58;65.94;99870.88;5358849;26;20083;-79
2024/04/21 06:27:35;;;;;;;19.02;7.95;;;;;;;15.61;64.44;99870.50;5361965;26;20004;-78
2024/04/21 06:30:02;;;;;;;20.70;8.30;;;;;;;15.84;65.01;99856.00;5312082;26;20024;-75
2024/04/21 06:32:30;;;;;;;18.02;8.07;;;;;;;16.05;63.09;99845.34;5339536;26;20522;-73
2024/04/21 06:34:57;;;;;;;18.88;8.18;;;;;;;16.17;59.82;99849.22;5337557;26;20070;-72
2024/04/21 06:37:23;;;;;;;17.05;7.20;;;;;;;16.32;58.15;99841.13;5307381;26;20012;-76
2024/04/21 06:39:49;;;;;;;17.05;7.97;;;;;;;16.30;57.62;99833.28;5338836;26;20175;-75
2024/04/21 06:42:15;;;;;;;14.48;6.43;;;;;;;16.31;57.16;99824.22;5317324;26;20041;-78
2024/04/21 06:44:40;;;;;;;20.05;7.65;;;;;;;16.38;55.72;99818.94;5339733;26;20031;-74
2024/04/21 06:47:09;;;;;;;17.30;6.72;;;;;;;16.31;55.58;99812.69;5277973;26;20455;-73
2024/04/21 06:49:36;;;;;;;15.23;6.30;;;;;;;16.48;54.91;99798.03;5315302;26;20033;-75
2024/04/21 06:52:03;;;;;;;10.55;5.45;;;;;;;16.77;53.22;99804.06;5305055;26;20016;-73
2024/04/21 06:54:29;;;;;;;18.00;6.43;;;;;;;17.00;50.77;99803.84;5358902;26;20446;-75
2024/04/21 06:56:55;;;;;;;12.75;6.18;;;;;;;17.43;50.58;99804.53;5314091;26;20016;-75
2024/04/21 06:59:24;;;;;;;15.63;5.30;;;;;;;17.53;47.10;99794.31;5294465;27;20762;-75
2024/04/21 07:01:52;;;;;;;8.48;4.10;;;;;;;17.73;48.84;99773.72;5243091;27;20065;-76
2024/04/21 07:04:19;;;;;;;8.45;3.67;;;;;;;17.95;46.81;99772.59;5252158;27;20058;-74
2024/04/21 07:06:44;;;;;;;6.65;2.83;;;;;;;18.22;45.66;99759.00;5239875;27;20073;-76
2024/04/21 07:09:11;;;;;;;6.40;2.58;;;;;;;17.97;44.93;99770.53;5230173;27;20003;-76
2024/04/21 07:11:38;;;;;;;3.33;2.10;;;;;;;18.33;43.50;99757.56;5211673;27;20597;-74
2024/04/21 07:14:05;;;;;;;3.00;1.95;;;;;;;18.83;42.67;99773.19;5276480;27;20409;-75
2024/04/21 07:16:31;;;;;;;6.22;1.92;;;;;;;19.08;43.38;99765.28;5233077;26;20137;-73
2024/04/21 07:18:57;;;;;;;6.03;2.10;;;;;;;19.40;39.91;99759.88;5284072;26;20612;-72
2024/04/21 07:21:23;;;;;;;7.82;1.67;;;;;;;19.49;38.96;99753.22;5278508;27;20017;-73
2024/04/21 07:23:49;;;;;;;9.50;1.60;;;;;;;18.94;38.53;99739.41;5251822;26;20411;-75
2024/04/21 07:26:15;;;;;;;5.13;1.83;;;;;;;19.05;38.60;99747.66;5251129;27;20005;-74
2024/04/21 07:28:40;;;;;;;4.55;1.45;;;;;;;19.51;38.32;99729.56;5308219;26;20008;-75
2024/04/21 07:31:06;;;;;;;7.03;1.90;;;;;;;19.73;37.32;99716.63;5246191;26;20024;-80
2024/04/21 07:33:33;;;;;;;4.57;1.90;;;;;;;20.39;37.66;99717.91;5345302;26;20008;-75
2024/04/21 07:36:00;;;;;;;3.03;1.70;;;;;;;20.86;37.43;99727.28;5377732;26;20071;-75
2024/04/21 07:38:26;;;;;;;11.38;2.17;;;;;;;20.72;34.08;99718.47;5348986;26;20399;-80
2024/04/21 07:40:52;;;;;;;6.72;2.35;;;;;;;21.30;33.03;99694.63;5317322;26;20575;-78
2024/04/21 07:43:18;;;;;;;3.80;2.30;;;;;;;22.49;32.45;99690.91;5292150;26;20522;-79
2024/04/21 07:45:50;;;;;;;5.28;2.28;;;;;;;24.51;30.33;99694.09;5322519;26;20889;-80
2024/04/21 07:48:18;;;;;;;7.60;2.30;;;;;;;25.11;27.82;99691.53;5380420;26;20042;-79
2024/04/21 07:50:45;;;;;;;9.02;2.45;;;;;;;25.21;27.85;99680.78;5267720;26;20009;-83
2024/04/21 07:53:11;;;;;;;3.55;1.90;;;;;;;24.58;27.46;99675.75;5293163;26;20067;-81
2024/04/21 07:55:39;;;;;;;5.35;2.50;;;;;;;24.30;27.45;99667.66;5293703;26;20071;-79
2024/04/21 07:58:06;;;;;;;3.97;2.10;;;;;;;25.06;27.11;99664.28;5268100;26;20006;-78
2024/04/21 08:00:36;;;;;;;8.57;2.67;;;;;;;26.00;27.14;99636.63;5358001;26;20015;-83
2024/04/21 08:03:03;;;;;;;4.38;3.92;;;;;;;26.16;25.91;99644.66;5325375;26;20015;-79
2024/04/21 08:05:29;;;;;;;12.15;6.85;;;;;;;28.18;24.60;99641.13;5272939;26;20016;-77
2024/04/21 08:07:57;;;;;;;11.98;7.07;;;;;;;30.20;22.92;99643.03;5268560;26;20002;-74
2024/04/21 08:10:24;;;;;;;13.07;7.63;;;;;;;31.96;20.34;99640.03;5267132;27;20085;-80
2024/04/21 08:12:50;;;;;;;15.32;7.85;;;;;;;33.37;17.92;99615.50;5321536;26;20008;-80
2024/04/21 08:15:18;;;;;;;12.10;6.78;;;;;;;33.07;17.98;99625.22;5330199;26;20383;-78
2024/04/21 08:17:46;;;;;;;11.63;6.18;;;;;;;33.89;17.26;99603.94;5238181;27;20005;-79
2024/04/21 08:20:16;;;;;;;7.20;4.38;;;;;;;33.60;16.84;99607.03;5242600;27;20018;-77
2024/04/21 08:22:42;;;;;;;5.00;4.03;;;;;;;34.95;15.88;99616.69;5241675;27;20014;-78
2024/04/21 08:25:08;;;;;;;9.45;5.50;;;;;;;36.08;15.08;99594.53;5181636;27;20079;-78
2024/04/21 08:27:35;;;;;;;8.90;5.00;;;;;;;35.87;15.18;99582.50;5198524;27;20011;-78
2024/04/21 08:30:03;;;;;;;5.03;3.35;;;;;;;36.18;14.06;99583.94;5228357;27;20002;-77
2024/04/21 08:32:32;;;;;;;4.22;2.30;;;;;;;35.51;14.46;99580.81;5201633;27;20007;-80
2024/04/21 08:34:59;;;;;;;3.88;2.33;;;;;;;33.62;16.40;99555.22;5229166;27;20021;-77
2024/04/21 08:37:26;;;;;;;6.00;2.60;;;;;;;33.42;16.50;99558.41;5190025;27;20081;-74
2024/04/21 08:39:52;;;;;;;5.38;1.75;;;;;;;33.50;15.53;99541.16;5178982;27;20006;-77
2024/04/21 08:42:18;;;;;;;4.07;3.70;;;;;;;33.60;15.93;99560.22;5201779;27;20038;-75
2024/04/21 08:44:46;;;;;;;4.15;2.28;;;;;;;34.78;15.08;99550.31;5213508;27;20025;-73
2024/04/21 08:47:17;;;;;;;7.47;3.75;;;;;;;36.06;14.32;99542.31;5226915;27;20002;-76
2024/04/21 08:49:43;;;;;;;8.73;4.22;;;;;;;37.03;14.44;99535.84;5255416;27;20003;-77
2024/04/21 08:52:09;;;;;;;6.95;4.00;;;;;;;37.43;13.07;99533.53;5226788;27;20074;-79
2024/04/21 08:54:35;;;;;;;6.18;3.92;;;;;;;37.92;12.84;99522.34;5226985;27;20015;-77
2024/04/21 08:57:03;;;;;;;9.43;4.82;;;;;;;38.07;12.65;99515.38;5231994;27;20505;-81
2024/04/21 08:59:30;;;;;;;11.95;5.85;;;;;;;38.61;12.38;99516.94;5276948;27;20058;-78
2024/04/21 09:01:56;;;;;;;9.20;5.75;;;;;;;37.64;12.11;99496.34;5308098;26;20001;-85
2024/04/21 09:04:22;;;;;;;5.63;4.22;;;;;;;37.94;12.15;99516.47;5366911;26;20028;-83
2024/04/21 09:06:49;;;;;;;5.22;3.42;;;;;;;38.47;12.56;99511.66;5337664;26;20005;-83
2024/04/21 09:09:15;;;;;;;3.85;3.40;;;;;;;39.32;11.98;99514.50;5333436;26;20008;-84
2024/04/21 09:11:41;;;;;;;7.22;3.20;;;;;;;39.19;11.65;99518.44;5396004;26;20015;-85
2024/04/21 09:14:06;;;;;;;5.00;3.00;;;;;;;40.06;11.59;99495.25;5338967;26;20005;-81
2024/04/21 09:16:33;;;;;;;8.43;4.30;;;;;;;40.11;11.66;99503.38;5401490;26;20442;-78
2024/04/21 09:19:03;;;;;;;7.95;4.05;;;;;;;40.41;11.54;99496.25;5284090;26;20012;-77
2024/04/21 09:21:42;;;;;;;10.18;4.80;;;;;;;40.74;11.17;99487.56;5260893;26;20045;-77
2024/04/21 09:24:23;;;;;;;5.28;3.33;;;;;;;40.67;10.29;99465.91;5362966;26;20004;-72
2024/04/21 09:26:49;;;;;;;4.30;3.20;;;;;;;40.73;11.54;99480.38;5283505;26;20111;-82
2024/04/21 09:29:16;;;;;;;3.28;2.63;;;;;;;41.01;10.56;99478.28;5366871;26;20078;-79
2024/04/21 09:31:42;;;;;;;5.40;2.63;;;;;;;40.30;11.09;99472.09;5347106;26;20004;-76
2024/04/21 09:34:08;;;;;;;3.17;2.55;;;;;;;40.42;10.88;99453.31;5367856;26;20023;-74
2024/04/21 09:36:34;;;;;;;3.05;2.72;;;;;;;40.43;10.42;99471.63;5366691;26;20008;-78
2024/04/21 09:39:01;;;;;;;3.35;3.00;;;;;;;40.63;10.44;99472.56;5364835;26;20074;-78
2024/04/21 09:41:28;;;;;;;5.10;2.78;;;;;;;41.03;10.75;99470.34;5358990;26;20016;-81
2024/04/21 09:43:55;;;;;;;8.57;3.88;;;;;;;41.51;10.46;99459.53;5270912;26;20126;-79
2024/04/21 09:46:21;;;;;;;8.77;3.70;;;;;;;41.08;10.48;99448.56;5241836;26;20005;-80
2024/04/21 09:48:50;;;;;;;7.30;3.38;;;;;;;38.63;11.27;99442.41;5282007;26;20001;-79
2024/04/21 09:51:17;;;;;;;2.65;1.70;;;;;;;38.83;11.67;99449.03;5272240;26;20005;-75
2024/04/21 09:53:47;;;;;;;4.72;1.95;;;;;;;38.62;11.83;99410.28;5143306;27;1540301;-77
2024/04/21 09:56:20;;;;;;;9.07;2.30;;;;;;;36.27;12.32;99423.50;5196070;27;20646;-77
2024/04/21 09:58:52;;;;;;;5.38;3.17;;;;;;;35.98;12.92;99407.69;5126426;27;20015;-77
2024/04/21 10:01:48;;;;;;;5.15;3.38;;;;;;;37.05;13.19;99386.78;5238318;27;20000;-74
2024/04/21 10:04:21;;;;;;;8.85;2.33;;;;;;;37.67;11.94;99387.56;5145136;27;20012;-77
2024/04/21 10:06:50;;;;;;;7.20;3.50;;;;;;;36.19;12.89;99407.75;5085064;27;20024;-75
2024/04/21 10:09:21;;;;;;;8.30;3.20;;;;;;;35.40;13.58;99401.88;5099443;27;20017;-77
2024/04/21 10:11:47;;;;;;;12.85;4.30;;;;;;;34.21;14.90;99397.72;5106510;27;20016;-75
2024/04/21 10:14:13;;;;;;;4.38;2.50;;;;;;;32.95;15.37;99370.91;5099059;27;20003;-76
2024/04/21 10:16:41;;;;;;;3.20;2.00;;;;;;;31.97;15.53;99385.28;5153824;27;20023;-75
2024/04/21 10:19:12;;;;;;;5.40;2.33;;;;;;;30.67;17.40;99386.22;5212802;27;20119;-75
2024/04/21 10:21:38;;;;;;;12.05;4.53;;;;;;;30.27;17.63;99381.28;5243773;27;20042;-75
2024/04/21 10:24:04;;;;;;;11.07;5.28;;;;;;;30.44;19.83;99378.88;5215747;26;20322;-75
2024/04/21 10:26:30;;;;;;;7.07;4.05;;;;;;;29.72;18.63;99370.88;5361196;26;20004;-74
2024/04/21 10:29:12;;;;;;;11.50;5.25;;;;;;;29.44;19.54;99372.50;5350575;26;20342;-77
2024/04/21 10:31:38;;;;;;;10.38;5.90;;;;;;;29.54;19.07;99364.16;5384808;26;20016;-77
2024/04/21 10:34:10;;;;;;;8.77;4.53;;;;;;;29.32;19.04;99361.06;5325511;26;20004;-77
2024/04/21 10:36:54;;;;;;;5.68;3.03;;;;;;;28.13;20.07;99333.34;5324087;26;20019;-76
2024/04/21 10:39:24;;;;;;;7.40;3.40;;;;;;;27.07;21.92;99350.91;5343722;26;20015;-74
2024/04/21 10:41:51;;;;;;;4.80;2.83;;;;;;;25.76;22.73;99338.69;5354596;26;20020;-75
2024/04/21 10:44:17;;;;;;;6.00;2.40;;;;;;;24.87;23.37;99326.81;5343475;26;20281;-74
2024/04/21 10:46:44;;;;;;;6.57;2.08;;;;;;;24.32;24.77;99310.75;5331388;26;20004;-75
2024/04/21 10:49:11;;;;;;;2.58;2.00;;;;;;;23.90;24.96;99309.66;5346965;26;20019;-74
2024/04/21 10:51:37;;;;;;;4.93;2.28;;;;;;;23.43;25.93;99286.78;5373383;26;20004;-74
2024/04/21 10:54:07;;;;;;;3.33;2.28;;;;;;;23.05;27.40;99267.72;5311328;26;19997;-75
2024/04/21 10:56:36;;;;;;;4.53;3.20;;;;;;;22.83;28.67;99248.69;5298306;26;20031;-74
2024/04/21 10:59:05;;;;;;;11.32;5.20;;;;;;;22.51;28.69;99190.75;5319486;26;20004;-74
2024/04/21 11:01:31;;;;;;;18.08;7.95;;;;;;;22.28;30.18;99182.75;5278506;27;20013;-74
2024/04/21 11:03:58;;;;;;;19.10;7.72;;;;;;;22.14;31.31;99202.25;5245550;27;20014;-75
2024/04/21 11:06:25;;;;;;;13.60;5.28;;;;;;;21.93;31.49;99235.38;5218748;27;20006;-75
2024/04/21 11:08:51;;;;;;;8.75;3.13;;;;;;;21.53;32.13;99257.78;5217678;27;20014;-75
2024/04/21 11:11:17;;;;;;;6.50;2.33;;;;;;;21.53;32.43;99275.88;5217302;27;20002;-74
2024/04/21 11:13:43;;;;;;;3.20;1.30;;;;;;;21.51;32.65;99264.50;5190204;27;20003;-75
2024/04/21 11:16:12;;;;;;;10.45;1.35;;;;;;;21.06;33.17;99274.25;5245961;27;20077;-75
2024/04/21 11:18:40;;;;;;;14.95;1.50;;;;;;;21.24;34.46;99279.53;5152477;27;20075;-76
2024/04/21 11:21:07;;;;;;;4.55;1.50;;;;;;;21.49;34.22;99282.81;5136839;27;20004;-76